sensor_id;sensor_type;location;lat;lon;timestamp;temperature;humidity
13464;DHT22;6804;48.774;9.174;2022-07-01T00:02:04;19.70;99.90
13464;DHT22;6804;48.774;9.174;2022-07-01T00:04:33;19.80;99.90
13464;DHT22;6804;48.774;9.174;2022-07-01T00:07:01;19.80;99.90
13464;DHT22;6804;48.774;9.174;2022-07-01T00:09:28;19.80;99.90
13464;DHT22;6804;48.774;9.174;2022-07-01T00:11:55;19.80;99.90
13464;DHT22;6804;48.774;9.174;2022-07-01T00:14:26;19.70;99.90
13464;DHT22;6804;48.774;9.174;2022-07-01T00:16:53;19.70;99.90
13464;DHT22;6804;48.774;9.174;2022-07-01T00:19:24;19.60;99.90
13464;DHT22;6804;48.774;9.174;2022-07-01T00:21:53;19.40;99.90
13464;DHT22;6804;48.774;9.174;2022-07-01T00:24:22;19.40;99.90
13464;DHT22;6804;48.774;9.174;2022-07-01T00:26:56;19.30;99.90
13464;DHT22;6804;48.774;9.174;2022-07-01T00:29:26;19.20;99.90
13464;DHT22;6804;48.774;9.174;2022-07-01T00:31:53;19.10;99.90
13464;DHT22;6804;48.774;9.174;2022-07-01T00:34:21;19.00;99.90
13464;DHT22;6804;48.774;9.174;2022-07-01T00:36:48;19.00;99.90
13464;DHT22;6804;48.774;9.174;2022-07-01T00:39:17;18.90;99.90
13464;DHT22;6804;48.774;9.174;2022-07-01T00:41:44;18.90;99.90
13464;DHT22;6804;48.774;9.174;2022-07-01T00:44:18;18.80;99.90
13464;DHT22;6804;48.774;9.174;2022-07-01T00:46:50;18.70;99.90
13464;DHT22;6804;48.774;9.174;2022-07-01T00:49:18;18.60;99.90
13464;DHT22;6804;48.774;9.174;2022-07-01T00:51:46;18.60;99.90
13464;DHT22;6804;48.774;9.174;2022-07-01T00:54:14;18.60;99.90
13464;DHT22;6804;48.774;9.174;2022-07-01T00:56:45;18.50;99.90
13464;DHT22;6804;48.774;9.174;2022-07-01T00:59:13;18.50;99.90
13464;DHT22;6804;48.774;9.174;2022-07-01T01:01:41;18.50;99.90
13464;DHT22;6804;48.774;9.174;2022-07-01T01:04:11;18.50;99.90
13464;DHT22;6804;48.774;9.174;2022-07-01T01:06:40;18.60;99.90
13464;DHT22;6804;48.774;9.174;2022-07-01T01:09:10;18.60;99.90
13464;DHT22;6804;48.774;9.174;2022-07-01T01:11:37;18.70;99.90
13464;DHT22;6804;48.774;9.174;2022-07-01T01:14:06;18.70;99.90
13464;DHT22;6804;48.774;9.174;2022-07-01T01:16:36;18.70;99.90
13464;DHT22;6804;48.774;9.174;2022-07-01T01:19:05;18.70;99.90
13464;DHT22;6804;48.774;9.174;2022-07-01T01:21:36;18.70;99.90
13464;DHT22;6804;48.774;9.174;2022-07-01T01:24:05;18.60;99.90
13464;DHT22;6804;48.774;9.174;2022-07-01T01:26:34;18.60;99.90
13464;DHT22;6804;48.774;9.174;2022-07-01T01:29:01;18.70;99.90
13464;DHT22;6804;48.774;9.174;2022-07-01T01:31:31;18.60;99.90
13464;DHT22;6804;48.774;9.174;2022-07-01T01:33:59;18.60;99.90
13464;DHT22;6804;48.774;9.174;2022-07-01T01:36:26;18.60;99.90
13464;DHT22;6804;48.774;9.174;2022-07-01T01:38:55;18.50;99.90
13464;DHT22;6804;48.774;9.174;2022-07-01T01:41:26;18.50;99.90
13464;DHT22;6804;48.774;9.174;2022-07-01T01:43:56;18.40;99.90
13464;DHT22;6804;48.774;9.174;2022-07-01T01:46:24;18.30;99.90
13464;DHT22;6804;48.774;9.174;2022-07-01T01:48:51;18.30;99.90
13464;DHT22;6804;48.774;9.174;2022-07-01T01:51:19;18.30;99.90
13464;DHT22;6804;48.774;9.174;2022-07-01T01:53:46;18.10;99.90
13464;DHT22;6804;48.774;9.174;2022-07-01T01:56:17;18.10;99.90
13464;DHT22;6804;48.774;9.174;2022-07-01T01:58:44;18.10;99.90
13464;DHT22;6804;48.774;9.174;2022-07-01T02:01:12;18.00;99.90
13464;DHT22;6804;48.774;9.174;2022-07-01T02:03:46;17.90;99.90
13464;DHT22;6804;48.774;9.174;2022-07-01T02:06:15;17.90;99.90
13464;DHT22;6804;48.774;9.174;2022-07-01T02:08:45;17.70;99.90
13464;DHT22;6804;48.774;9.174;2022-07-01T02:11:16;17.70;99.90
13464;DHT22;6804;48.774;9.174;2022-07-01T02:13:43;17.60;99.90
13464;DHT22;6804;48.774;9.174;2022-07-01T02:16:11;17.50;99.90
13464;DHT22;6804;48.774;9.174;2022-07-01T02:18:38;17.50;99.90
13464;DHT22;6804;48.774;9.174;2022-07-01T02:21:06;17.50;99.90
13464;DHT22;6804;48.774;9.174;2022-07-01T02:23:33;17.30;99.90
13464;DHT22;6804;48.774;9.174;2022-07-01T02:26:03;17.30;99.90
13464;DHT22;6804;48.774;9.174;2022-07-01T02:28:32;17.30;99.90
13464;DHT22;6804;48.774;9.174;2022-07-01T02:30:59;17.30;99.90
13464;DHT22;6804;48.774;9.174;2022-07-01T02:33:28;17.40;99.90
13464;DHT22;6804;48.774;9.174;2022-07-01T02:35:55;17.30;99.90
13464;DHT22;6804;48.774;9.174;2022-07-01T02:38:24;17.30;99.90
13464;DHT22;6804;48.774;9.174;2022-07-01T02:40:52;17.20;99.90
13464;DHT22;6804;48.774;9.174;2022-07-01T02:43:19;17.20;99.90
13464;DHT22;6804;48.774;9.174;2022-07-01T02:45:51;17.20;99.90
13464;DHT22;6804;48.774;9.174;2022-07-01T02:48:18;17.20;99.90
13464;DHT22;6804;48.774;9.174;2022-07-01T02:50:48;17.20;99.90
13464;DHT22;6804;48.774;9.174;2022-07-01T02:53:16;17.20;99.90
13464;DHT22;6804;48.774;9.174;2022-07-01T02:55:45;17.20;99.90
13464;DHT22;6804;48.774;9.174;2022-07-01T02:58:13;17.20;99.90
13464;DHT22;6804;48.774;9.174;2022-07-01T03:00:40;17.20;99.90
13464;DHT22;6804;48.774;9.174;2022-07-01T03:03:09;17.20;99.90
13464;DHT22;6804;48.774;9.174;2022-07-01T03:05:36;17.20;99.90
13464;DHT22;6804;48.774;9.174;2022-07-01T03:08:04;17.20;99.90
13464;DHT22;6804;48.774;9.174;2022-07-01T03:10:31;17.20;99.90
13464;DHT22;6804;48.774;9.174;2022-07-01T03:13:00;17.30;99.90
13464;DHT22;6804;48.774;9.174;2022-07-01T03:15:28;17.40;99.90
13464;DHT22;6804;48.774;9.174;2022-07-01T03:17:55;17.30;99.90
13464;DHT22;6804;48.774;9.174;2022-07-01T03:20:24;17.30;99.90
13464;DHT22;6804;48.774;9.174;2022-07-01T03:22:54;17.30;99.90
13464;DHT22;6804;48.774;9.174;2022-07-01T03:25:23;17.30;99.90
13464;DHT22;6804;48.774;9.174;2022-07-01T03:27:50;17.40;99.90
13464;DHT22;6804;48.774;9.174;2022-07-01T03:30:24;17.40;99.90
13464;DHT22;6804;48.774;9.174;2022-07-01T03:32:51;17.50;99.90
13464;DHT22;6804;48.774;9.174;2022-07-01T03:35:19;17.40;99.90
13464;DHT22;6804;48.774;9.174;2022-07-01T03:38:08;17.40;99.90
13464;DHT22;6804;48.774;9.174;2022-07-01T03:40:35;17.40;99.90
13464;DHT22;6804;48.774;9.174;2022-07-01T03:43:04;17.50;99.90
13464;DHT22;6804;48.774;9.174;2022-07-01T03:45:32;17.50;99.90
13464;DHT22;6804;48.774;9.174;2022-07-01T03:47:59;17.50;99.90
13464;DHT22;6804;48.774;9.174;2022-07-01T03:50:30;17.50;99.90
13464;DHT22;6804;48.774;9.174;2022-07-01T03:53:00;17.60;99.90
13464;DHT22;6804;48.774;9.174;2022-07-01T03:55:46;17.60;99.90
13464;DHT22;6804;48.774;9.174;2022-07-01T03:58:14;17.60;99.90
13464;DHT22;6804;48.774;9.174;2022-07-01T04:00:41;17.60;99.90
13464;DHT22;6804;48.774;9.174;2022-07-01T04:03:08;17.60;99.90
13464;DHT22;6804;48.774;9.174;2022-07-01T04:05:39;17.50;99.90
13464;DHT22;6804;48.774;9.174;2022-07-01T04:08:07;17.60;99.90
13464;DHT22;6804;48.774;9.174;2022-07-01T04:10:37;17.60;99.90
13464;DHT22;6804;48.774;9.174;2022-07-01T04:13:09;17.50;99.90
13464;DHT22;6804;48.774;9.174;2022-07-01T04:15:37;17.40;99.90
13464;DHT22;6804;48.774;9.174;2022-07-01T04:18:04;17.40;99.90
13464;DHT22;6804;48.774;9.174;2022-07-01T04:20:31;17.30;99.90
13464;DHT22;6804;48.774;9.174;2022-07-01T04:23:01;17.30;99.90
13464;DHT22;6804;48.774;9.174;2022-07-01T04:25:28;17.40;99.90
13464;DHT22;6804;48.774;9.174;2022-07-01T04:27:56;17.30;99.90
13464;DHT22;6804;48.774;9.174;2022-07-01T04:30:24;17.30;99.90
13464;DHT22;6804;48.774;9.174;2022-07-01T04:32:51;17.30;99.90
13464;DHT22;6804;48.774;9.174;2022-07-01T04:35:21;17.30;99.90
13464;DHT22;6804;48.774;9.174;2022-07-01T04:37:49;17.30;99.90
13464;DHT22;6804;48.774;9.174;2022-07-01T04:40:17;17.30;99.90
13464;DHT22;6804;48.774;9.174;2022-07-01T04:42:46;17.40;99.90
13464;DHT22;6804;48.774;9.174;2022-07-01T04:45:13;17.30;99.90
13464;DHT22;6804;48.774;9.174;2022-07-01T04:47:41;17.30;99.90
13464;DHT22;6804;48.774;9.174;2022-07-01T04:50:09;17.20;99.90
13464;DHT22;6804;48.774;9.174;2022-07-01T04:52:39;17.00;99.90
13464;DHT22;6804;48.774;9.174;2022-07-01T04:55:07;17.00;99.90
13464;DHT22;6804;48.774;9.174;2022-07-01T04:57:36;17.00;99.90
13464;DHT22;6804;48.774;9.174;2022-07-01T05:00:08;17.00;99.90
13464;DHT22;6804;48.774;9.174;2022-07-01T05:02:35;17.00;99.90
13464;DHT22;6804;48.774;9.174;2022-07-01T05:05:05;17.10;99.90
13464;DHT22;6804;48.774;9.174;2022-07-01T05:07:32;17.20;99.90
13464;DHT22;6804;48.774;9.174;2022-07-01T05:10:07;17.20;99.90
13464;DHT22;6804;48.774;9.174;2022-07-01T05:12:34;17.20;99.90
13464;DHT22;6804;48.774;9.174;2022-07-01T05:15:04;17.20;99.90
13464;DHT22;6804;48.774;9.174;2022-07-01T05:17:32;17.20;99.90
13464;DHT22;6804;48.774;9.174;2022-07-01T05:20:15;17.20;99.90
13464;DHT22;6804;48.774;9.174;2022-07-01T05:23:02;17.10;99.90
13464;DHT22;6804;48.774;9.174;2022-07-01T05:25:32;17.20;99.90
13464;DHT22;6804;48.774;9.174;2022-07-01T05:28:02;17.10;99.90
13464;DHT22;6804;48.774;9.174;2022-07-01T05:30:33;17.10;99.90
13464;DHT22;6804;48.774;9.174;2022-07-01T05:33:03;17.20;99.90
13464;DHT22;6804;48.774;9.174;2022-07-01T05:35:32;17.20;99.90
13464;DHT22;6804;48.774;9.174;2022-07-01T05:38:01;17.30;99.90
13464;DHT22;6804;48.774;9.174;2022-07-01T05:40:29;17.30;99.90
13464;DHT22;6804;48.774;9.174;2022-07-01T05:42:56;17.20;99.90
13464;DHT22;6804;48.774;9.174;2022-07-01T05:45:23;17.10;99.90
13464;DHT22;6804;48.774;9.174;2022-07-01T05:47:57;17.10;99.90
13464;DHT22;6804;48.774;9.174;2022-07-01T05:50:24;17.00;99.90
13464;DHT22;6804;48.774;9.174;2022-07-01T05:52:53;17.00;99.90
13464;DHT22;6804;48.774;9.174;2022-07-01T05:55:23;16.90;99.90
13464;DHT22;6804;48.774;9.174;2022-07-01T05:57:53;16.80;99.90
13464;DHT22;6804;48.774;9.174;2022-07-01T06:00:21;16.90;99.90
13464;DHT22;6804;48.774;9.174;2022-07-01T06:02:48;16.90;99.90
13464;DHT22;6804;48.774;9.174;2022-07-01T06:05:18;17.00;99.90
13464;DHT22;6804;48.774;9.174;2022-07-01T06:07:45;17.00;99.90
13464;DHT22;6804;48.774;9.174;2022-07-01T06:10:17;17.00;99.90
13464;DHT22;6804;48.774;9.174;2022-07-01T06:12:44;17.00;99.90
13464;DHT22;6804;48.774;9.174;2022-07-01T06:15:15;17.00;99.90
13464;DHT22;6804;48.774;9.174;2022-07-01T06:17:45;17.10;99.90
13464;DHT22;6804;48.774;9.174;2022-07-01T06:20:13;17.10;99.90
13464;DHT22;6804;48.774;9.174;2022-07-01T06:22:45;17.10;99.90
13464;DHT22;6804;48.774;9.174;2022-07-01T06:25:13;17.00;99.90
13464;DHT22;6804;48.774;9.174;2022-07-01T06:27:43;17.00;99.90
13464;DHT22;6804;48.774;9.174;2022-07-01T06:30:12;17.10;99.90
13464;DHT22;6804;48.774;9.174;2022-07-01T06:32:40;17.10;99.90
13464;DHT22;6804;48.774;9.174;2022-07-01T06:35:08;17.10;99.90
13464;DHT22;6804;48.774;9.174;2022-07-01T06:37:36;17.00;99.90
13464;DHT22;6804;48.774;9.174;2022-07-01T06:40:05;17.00;99.90
13464;DHT22;6804;48.774;9.174;2022-07-01T06:42:36;17.00;99.90
13464;DHT22;6804;48.774;9.174;2022-07-01T06:45:06;16.90;99.90
13464;DHT22;6804;48.774;9.174;2022-07-01T06:47:34;16.80;99.90
13464;DHT22;6804;48.774;9.174;2022-07-01T06:50:06;16.80;99.90
13464;DHT22;6804;48.774;9.174;2022-07-01T06:52:33;16.80;99.90
13464;DHT22;6804;48.774;9.174;2022-07-01T06:55:01;16.90;99.90
13464;DHT22;6804;48.774;9.174;2022-07-01T06:57:31;16.90;99.90
13464;DHT22;6804;48.774;9.174;2022-07-01T07:00:00;16.90;99.90
13464;DHT22;6804;48.774;9.174;2022-07-01T07:02:30;16.90;99.90
13464;DHT22;6804;48.774;9.174;2022-07-01T07:05:00;16.90;99.90
13464;DHT22;6804;48.774;9.174;2022-07-01T07:07:27;16.90;99.90
13464;DHT22;6804;48.774;9.174;2022-07-01T07:09:55;16.90;99.90
13464;DHT22;6804;48.774;9.174;2022-07-01T07:12:26;16.90;99.90
13464;DHT22;6804;48.774;9.174;2022-07-01T07:14:53;16.90;99.90
13464;DHT22;6804;48.774;9.174;2022-07-01T07:17:21;16.90;99.90
13464;DHT22;6804;48.774;9.174;2022-07-01T07:19:50;16.90;99.90
13464;DHT22;6804;48.774;9.174;2022-07-01T07:22:19;16.90;99.90
13464;DHT22;6804;48.774;9.174;2022-07-01T07:24:47;16.90;99.90
13464;DHT22;6804;48.774;9.174;2022-07-01T07:27:15;16.90;99.90
13464;DHT22;6804;48.774;9.174;2022-07-01T07:29:42;16.80;99.90
13464;DHT22;6804;48.774;9.174;2022-07-01T07:32:12;16.80;99.90
13464;DHT22;6804;48.774;9.174;2022-07-01T07:34:42;16.90;99.90
13464;DHT22;6804;48.774;9.174;2022-07-01T07:37:13;16.90;99.90
13464;DHT22;6804;48.774;9.174;2022-07-01T07:39:41;16.90;99.90
13464;DHT22;6804;48.774;9.174;2022-07-01T07:42:08;16.90;99.90
13464;DHT22;6804;48.774;9.174;2022-07-01T07:44:36;17.00;99.90
13464;DHT22;6804;48.774;9.174;2022-07-01T07:47:10;17.00;99.90
13464;DHT22;6804;48.774;9.174;2022-07-01T07:49:38;17.10;99.90
13464;DHT22;6804;48.774;9.174;2022-07-01T07:52:08;17.10;99.90
13464;DHT22;6804;48.774;9.174;2022-07-01T07:54:40;17.00;99.90
13464;DHT22;6804;48.774;9.174;2022-07-01T07:57:10;17.10;99.90
13464;DHT22;6804;48.774;9.174;2022-07-01T07:59:38;17.10;99.90
13464;DHT22;6804;48.774;9.174;2022-07-01T08:02:06;17.10;99.90
13464;DHT22;6804;48.774;9.174;2022-07-01T08:04:37;17.10;99.90
13464;DHT22;6804;48.774;9.174;2022-07-01T08:07:04;17.10;99.90
13464;DHT22;6804;48.774;9.174;2022-07-01T08:09:32;17.10;99.90
13464;DHT22;6804;48.774;9.174;2022-07-01T08:12:02;17.10;99.90
13464;DHT22;6804;48.774;9.174;2022-07-01T08:14:30;17.20;99.90
13464;DHT22;6804;48.774;9.174;2022-07-01T08:16:57;17.10;99.90
13464;DHT22;6804;48.774;9.174;2022-07-01T08:19:28;17.10;99.90
13464;DHT22;6804;48.774;9.174;2022-07-01T08:21:58;17.10;99.90
13464;DHT22;6804;48.774;9.174;2022-07-01T08:24:26;17.10;99.90
13464;DHT22;6804;48.774;9.174;2022-07-01T08:27:04;17.10;99.90
13464;DHT22;6804;48.774;9.174;2022-07-01T08:29:32;17.00;99.90
13464;DHT22;6804;48.774;9.174;2022-07-01T08:32:03;17.10;99.90
13464;DHT22;6804;48.774;9.174;2022-07-01T08:34:33;17.10;99.90
13464;DHT22;6804;48.774;9.174;2022-07-01T08:37:07;17.10;99.90
13464;DHT22;6804;48.774;9.174;2022-07-01T08:39:38;17.10;99.90
13464;DHT22;6804;48.774;9.174;2022-07-01T08:42:12;17.10;99.90
13464;DHT22;6804;48.774;9.174;2022-07-01T08:44:39;17.10;99.90
13464;DHT22;6804;48.774;9.174;2022-07-01T08:47:12;17.20;99.90
13464;DHT22;6804;48.774;9.174;2022-07-01T08:49:40;17.20;99.90
13464;DHT22;6804;48.774;9.174;2022-07-01T08:52:08;17.30;99.90
13464;DHT22;6804;48.774;9.174;2022-07-01T08:54:42;17.30;99.90
13464;DHT22;6804;48.774;9.174;2022-07-01T08:57:11;17.30;99.90
13464;DHT22;6804;48.774;9.174;2022-07-01T08:59:39;17.30;99.90
13464;DHT22;6804;48.774;9.174;2022-07-01T09:02:07;17.30;99.90
13464;DHT22;6804;48.774;9.174;2022-07-01T09:04:34;17.30;99.90
13464;DHT22;6804;48.774;9.174;2022-07-01T09:07:04;17.40;99.90
13464;DHT22;6804;48.774;9.174;2022-07-01T09:09:37;17.40;99.90
13464;DHT22;6804;48.774;9.174;2022-07-01T09:12:12;17.40;99.90
13464;DHT22;6804;48.774;9.174;2022-07-01T09:14:45;17.40;99.90
13464;DHT22;6804;48.774;9.174;2022-07-01T09:17:19;17.40;99.90
13464;DHT22;6804;48.774;9.174;2022-07-01T09:19:50;17.40;99.90
13464;DHT22;6804;48.774;9.174;2022-07-01T09:22:17;17.40;99.90
13464;DHT22;6804;48.774;9.174;2022-07-01T09:24:48;17.40;99.90
13464;DHT22;6804;48.774;9.174;2022-07-01T09:27:19;17.50;99.90
13464;DHT22;6804;48.774;9.174;2022-07-01T09:29:50;17.40;99.90
13464;DHT22;6804;48.774;9.174;2022-07-01T09:32:19;17.40;99.90
13464;DHT22;6804;48.774;9.174;2022-07-01T09:34:50;17.30;99.90
13464;DHT22;6804;48.774;9.174;2022-07-01T09:37:22;17.20;99.90
13464;DHT22;6804;48.774;9.174;2022-07-01T09:39:54;17.10;99.90
13464;DHT22;6804;48.774;9.174;2022-07-01T09:42:24;17.00;99.90
13464;DHT22;6804;48.774;9.174;2022-07-01T09:45:01;17.00;99.90
13464;DHT22;6804;48.774;9.174;2022-07-01T09:47:32;17.00;99.90
13464;DHT22;6804;48.774;9.174;2022-07-01T09:50:00;17.10;99.90
13464;DHT22;6804;48.774;9.174;2022-07-01T09:52:34;17.00;99.90
13464;DHT22;6804;48.774;9.174;2022-07-01T09:55:06;17.00;99.90
13464;DHT22;6804;48.774;9.174;2022-07-01T09:57:36;17.00;99.90
13464;DHT22;6804;48.774;9.174;2022-07-01T10:00:04;17.10;99.90
13464;DHT22;6804;48.774;9.174;2022-07-01T10:02:34;17.10;99.90
13464;DHT22;6804;48.774;9.174;2022-07-01T10:05:05;17.10;99.90
13464;DHT22;6804;48.774;9.174;2022-07-01T10:07:47;17.10;99.90
13464;DHT22;6804;48.774;9.174;2022-07-01T10:10:41;17.10;99.90
13464;DHT22;6804;48.774;9.174;2022-07-01T10:13:13;17.20;99.90
13464;DHT22;6804;48.774;9.174;2022-07-01T10:15:41;17.20;99.90
13464;DHT22;6804;48.774;9.174;2022-07-01T10:18:22;17.30;99.90
13464;DHT22;6804;48.774;9.174;2022-07-01T10:20:51;17.30;99.90
13464;DHT22;6804;48.774;9.174;2022-07-01T10:23:21;17.30;99.90
13464;DHT22;6804;48.774;9.174;2022-07-01T10:25:49;17.30;99.90
13464;DHT22;6804;48.774;9.174;2022-07-01T10:28:22;17.30;99.90
13464;DHT22;6804;48.774;9.174;2022-07-01T10:30:59;17.40;99.90
13464;DHT22;6804;48.774;9.174;2022-07-01T10:33:32;17.40;99.90
13464;DHT22;6804;48.774;9.174;2022-07-01T10:36:08;17.50;99.90
13464;DHT22;6804;48.774;9.174;2022-07-01T10:39:15;17.60;99.90
13464;DHT22;6804;48.774;9.174;2022-07-01T10:41:57;17.70;99.90
13464;DHT22;6804;48.774;9.174;2022-07-01T10:44:27;17.80;99.90
13464;DHT22;6804;48.774;9.174;2022-07-01T10:47:05;17.90;99.90
13464;DHT22;6804;48.774;9.174;2022-07-01T10:49:57;17.90;99.90
13464;DHT22;6804;48.774;9.174;2022-07-01T10:52:25;18.00;99.90
13464;DHT22;6804;48.774;9.174;2022-07-01T10:54:55;17.90;99.90
13464;DHT22;6804;48.774;9.174;2022-07-01T10:57:28;17.80;99.90
13464;DHT22;6804;48.774;9.174;2022-07-01T11:00:27;17.60;99.90
13464;DHT22;6804;48.774;9.174;2022-07-01T11:03:09;17.60;99.90
13464;DHT22;6804;48.774;9.174;2022-07-01T11:05:40;17.70;99.90
13464;DHT22;6804;48.774;9.174;2022-07-01T11:08:14;17.70;99.90
13464;DHT22;6804;48.774;9.174;2022-07-01T11:10:42;17.80;99.90
13464;DHT22;6804;48.774;9.174;2022-07-01T11:13:13;17.90;99.90
13464;DHT22;6804;48.774;9.174;2022-07-01T11:15:47;18.00;99.90
13464;DHT22;6804;48.774;9.174;2022-07-01T11:18:15;18.10;99.90
13464;DHT22;6804;48.774;9.174;2022-07-01T11:20:44;18.10;99.90
13464;DHT22;6804;48.774;9.174;2022-07-01T11:23:12;18.10;99.90
13464;DHT22;6804;48.774;9.174;2022-07-01T11:25:42;18.20;99.90
13464;DHT22;6804;48.774;9.174;2022-07-01T11:28:11;18.20;99.90
13464;DHT22;6804;48.774;9.174;2022-07-01T11:30:46;18.20;99.90
13464;DHT22;6804;48.774;9.174;2022-07-01T11:33:14;18.20;99.90
13464;DHT22;6804;48.774;9.174;2022-07-01T11:35:43;18.20;99.90
13464;DHT22;6804;48.774;9.174;2022-07-01T11:38:28;18.30;99.90
13464;DHT22;6804;48.774;9.174;2022-07-01T11:41:19;18.40;99.90
13464;DHT22;6804;48.774;9.174;2022-07-01T11:43:56;18.40;99.90
13464;DHT22;6804;48.774;9.174;2022-07-01T11:46:25;18.50;99.90
13464;DHT22;6804;48.774;9.174;2022-07-01T11:48:53;18.60;99.90
13464;DHT22;6804;48.774;9.174;2022-07-01T11:51:24;18.70;99.90
13464;DHT22;6804;48.774;9.174;2022-07-01T11:53:54;18.70;99.90
13464;DHT22;6804;48.774;9.174;2022-07-01T11:56:28;18.90;99.90
13464;DHT22;6804;48.774;9.174;2022-07-01T11:58:57;18.90;99.90
13464;DHT22;6804;48.774;9.174;2022-07-01T12:01:30;18.90;99.90
13464;DHT22;6804;48.774;9.174;2022-07-01T12:04:00;19.10;99.90
13464;DHT22;6804;48.774;9.174;2022-07-01T12:06:29;19.20;99.90
13464;DHT22;6804;48.774;9.174;2022-07-01T12:08:58;19.30;99.90
13464;DHT22;6804;48.774;9.174;2022-07-01T12:11:27;19.30;99.90
13464;DHT22;6804;48.774;9.174;2022-07-01T12:13:56;19.40;99.90
13464;DHT22;6804;48.774;9.174;2022-07-01T12:16:28;19.70;99.90
13464;DHT22;6804;48.774;9.174;2022-07-01T12:19:04;19.90;99.90
13464;DHT22;6804;48.774;9.174;2022-07-01T12:21:47;20.20;99.90
13464;DHT22;6804;48.774;9.174;2022-07-01T12:24:16;20.20;99.90
13464;DHT22;6804;48.774;9.174;2022-07-01T12:27:01;19.80;99.90
13464;DHT22;6804;48.774;9.174;2022-07-01T12:29:31;19.80;99.90
13464;DHT22;6804;48.774;9.174;2022-07-01T12:32:17;19.90;99.90
13464;DHT22;6804;48.774;9.174;2022-07-01T12:34:47;19.90;99.90
13464;DHT22;6804;48.774;9.174;2022-07-01T12:37:17;19.80;99.90
13464;DHT22;6804;48.774;9.174;2022-07-01T12:39:48;19.80;99.90
13464;DHT22;6804;48.774;9.174;2022-07-01T12:42:28;19.90;99.90
13464;DHT22;6804;48.774;9.174;2022-07-01T12:44:57;19.80;99.90
13464;DHT22;6804;48.774;9.174;2022-07-01T12:47:28;19.70;99.90
13464;DHT22;6804;48.774;9.174;2022-07-01T12:50:13;19.70;99.90
13464;DHT22;6804;48.774;9.174;2022-07-01T12:52:42;19.50;99.90
13464;DHT22;6804;48.774;9.174;2022-07-01T12:55:16;19.50;99.90
13464;DHT22;6804;48.774;9.174;2022-07-01T12:57:46;19.50;99.90
13464;DHT22;6804;48.774;9.174;2022-07-01T13:00:15;19.50;99.90
13464;DHT22;6804;48.774;9.174;2022-07-01T13:02:46;19.50;99.90
13464;DHT22;6804;48.774;9.174;2022-07-01T13:05:17;19.50;99.90
13464;DHT22;6804;48.774;9.174;2022-07-01T13:07:45;19.30;99.90
13464;DHT22;6804;48.774;9.174;2022-07-01T13:10:15;19.10;99.90
13464;DHT22;6804;48.774;9.174;2022-07-01T13:12:47;18.80;99.90
13464;DHT22;6804;48.774;9.174;2022-07-01T13:15:16;18.50;99.90
13464;DHT22;6804;48.774;9.174;2022-07-01T13:17:48;18.30;99.90
13464;DHT22;6804;48.774;9.174;2022-07-01T13:20:20;18.20;99.90
13464;DHT22;6804;48.774;9.174;2022-07-01T13:22:48;18.30;99.90
13464;DHT22;6804;48.774;9.174;2022-07-01T13:25:16;18.50;99.90
13464;DHT22;6804;48.774;9.174;2022-07-01T13:27:44;18.60;99.90
13464;DHT22;6804;48.774;9.174;2022-07-01T13:30:13;18.60;99.90
13464;DHT22;6804;48.774;9.174;2022-07-01T13:32:49;18.50;99.90
13464;DHT22;6804;48.774;9.174;2022-07-01T13:35:20;18.60;99.90
13464;DHT22;6804;48.774;9.174;2022-07-01T13:37:48;18.80;99.90
13464;DHT22;6804;48.774;9.174;2022-07-01T13:40:16;18.90;99.90
13464;DHT22;6804;48.774;9.174;2022-07-01T13:42:47;19.00;99.90
13464;DHT22;6804;48.774;9.174;2022-07-01T13:45:17;19.10;99.90
13464;DHT22;6804;48.774;9.174;2022-07-01T13:47:46;19.20;99.90
13464;DHT22;6804;48.774;9.174;2022-07-01T13:50:14;19.30;99.90
13464;DHT22;6804;48.774;9.174;2022-07-01T13:52:45;19.10;99.90
13464;DHT22;6804;48.774;9.174;2022-07-01T13:55:13;18.70;99.90
13464;DHT22;6804;48.774;9.174;2022-07-01T13:57:41;18.40;99.90
13464;DHT22;6804;48.774;9.174;2022-07-01T14:00:09;18.30;99.90
13464;DHT22;6804;48.774;9.174;2022-07-01T14:02:37;18.20;99.90
13464;DHT22;6804;48.774;9.174;2022-07-01T14:05:14;18.20;99.90
13464;DHT22;6804;48.774;9.174;2022-07-01T14:07:41;18.20;99.90
13464;DHT22;6804;48.774;9.174;2022-07-01T14:10:09;18.20;99.90
13464;DHT22;6804;48.774;9.174;2022-07-01T14:12:37;18.20;99.90
13464;DHT22;6804;48.774;9.174;2022-07-01T14:15:06;18.20;99.90
13464;DHT22;6804;48.774;9.174;2022-07-01T14:17:34;18.40;99.90
13464;DHT22;6804;48.774;9.174;2022-07-01T14:20:03;18.50;99.90
13464;DHT22;6804;48.774;9.174;2022-07-01T14:22:37;18.70;99.90
13464;DHT22;6804;48.774;9.174;2022-07-01T14:25:05;18.80;99.90
13464;DHT22;6804;48.774;9.174;2022-07-01T14:27:33;18.90;99.90
13464;DHT22;6804;48.774;9.174;2022-07-01T14:30:00;19.10;99.90
13464;DHT22;6804;48.774;9.174;2022-07-01T14:32:30;19.30;99.90
13464;DHT22;6804;48.774;9.174;2022-07-01T14:35:00;19.40;99.90
13464;DHT22;6804;48.774;9.174;2022-07-01T14:37:28;19.60;99.90
13464;DHT22;6804;48.774;9.174;2022-07-01T14:40:03;19.80;99.90
13464;DHT22;6804;48.774;9.174;2022-07-01T14:42:31;20.00;99.90
13464;DHT22;6804;48.774;9.174;2022-07-01T14:45:00;20.40;99.90
13464;DHT22;6804;48.774;9.174;2022-07-01T14:47:28;20.50;99.90
13464;DHT22;6804;48.774;9.174;2022-07-01T14:49:56;20.40;99.90
13464;DHT22;6804;48.774;9.174;2022-07-01T14:52:24;20.50;99.90
13464;DHT22;6804;48.774;9.174;2022-07-01T14:54:51;20.70;99.90
13464;DHT22;6804;48.774;9.174;2022-07-01T14:57:20;20.90;99.90
13464;DHT22;6804;48.774;9.174;2022-07-01T14:59:48;21.10;99.90
13464;DHT22;6804;48.774;9.174;2022-07-01T15:02:16;21.30;99.90
13464;DHT22;6804;48.774;9.174;2022-07-01T15:04:44;21.30;99.90
13464;DHT22;6804;48.774;9.174;2022-07-01T15:07:16;21.20;99.90
13464;DHT22;6804;48.774;9.174;2022-07-01T15:09:49;21.20;99.90
13464;DHT22;6804;48.774;9.174;2022-07-01T15:12:22;20.90;99.90
13464;DHT22;6804;48.774;9.174;2022-07-01T15:14:50;20.70;99.90
13464;DHT22;6804;48.774;9.174;2022-07-01T15:17:21;20.60;99.90
13464;DHT22;6804;48.774;9.174;2022-07-01T15:19:54;20.60;99.90
13464;DHT22;6804;48.774;9.174;2022-07-01T15:22:21;20.80;99.90
13464;DHT22;6804;48.774;9.174;2022-07-01T15:24:49;20.90;99.90
13464;DHT22;6804;48.774;9.174;2022-07-01T15:27:17;21.00;99.90
13464;DHT22;6804;48.774;9.174;2022-07-01T15:29:47;21.20;99.90
13464;DHT22;6804;48.774;9.174;2022-07-01T15:32:15;21.20;99.90
13464;DHT22;6804;48.774;9.174;2022-07-01T15:34:43;21.20;99.90
13464;DHT22;6804;48.774;9.174;2022-07-01T15:37:12;21.20;99.90
13464;DHT22;6804;48.774;9.174;2022-07-01T15:39:43;21.00;99.90
13464;DHT22;6804;48.774;9.174;2022-07-01T15:42:12;20.80;99.90
13464;DHT22;6804;48.774;9.174;2022-07-01T15:44:42;21.00;99.90
13464;DHT22;6804;48.774;9.174;2022-07-01T15:47:12;21.10;99.90
13464;DHT22;6804;48.774;9.174;2022-07-01T15:49:56;21.30;99.90
13464;DHT22;6804;48.774;9.174;2022-07-01T15:52:24;21.20;99.90
13464;DHT22;6804;48.774;9.174;2022-07-01T15:54:52;21.30;99.90
13464;DHT22;6804;48.774;9.174;2022-07-01T15:57:20;21.50;99.90
13464;DHT22;6804;48.774;9.174;2022-07-01T15:59:48;21.60;99.90
13464;DHT22;6804;48.774;9.174;2022-07-01T16:02:22;21.40;99.90
13464;DHT22;6804;48.774;9.174;2022-07-01T16:04:53;21.30;99.90